Аэропорт: Братск. Братск

ICAO: UIBB

METAR:
2021-10-23 02:00:00
UIBB 230200Z 28003MPS 250V310 9999 NSC 02/M01 Q1020 R30/60D NOSIG RMK QFE722/0963
METAR:
2021-10-22 23:00:00
TAF UIBB 222300Z 2300/2324 20003MPS 9999 BKN016CB TEMPO 2300/2301 0300 FZFG BECMG 2301/2303 26006G14MPS